createdAt,value
2019-02-24T00:01:03.848Z,103550.84
2019-02-24T00:03:34.269Z,103542.42
2019-02-24T00:06:04.774Z,103543.16
2019-02-24T00:08:35.268Z,103549.27
2019-02-24T00:11:05.954Z,103551.09
2019-02-24T00:13:36.446Z,103548.71
2019-02-24T00:16:06.832Z,103538.80
2019-02-24T00:18:37.560Z,103535.88
2019-02-24T00:21:07.993Z,103539.02
2019-02-24T00:23:38.405Z,103528.91
2019-02-24T00:26:08.935Z,103530.38
2019-02-24T00:28:39.290Z,103514.59
2019-02-24T00:31:09.667Z,103511.67
2019-02-24T00:33:40.025Z,103510.19
2019-02-24T00:36:10.426Z,103509.64
2019-02-24T00:38:40.762Z,103514.41
2019-02-24T00:41:11.153Z,103520.08
2019-02-24T00:43:41.503Z,103512.16
2019-02-24T00:46:11.965Z,103516.92
2019-02-24T00:48:42.308Z,103513.98
2019-02-24T00:51:12.702Z,103508.66
2019-02-24T00:53:43.113Z,103497.45
2019-02-24T00:56:13.509Z,103500.20
2019-02-24T00:58:43.850Z,103484.06
2019-02-24T01:01:14.222Z,103476.94
2019-02-24T01:03:44.629Z,103475.66
2019-02-24T01:06:15.454Z,103471.39
2019-02-24T01:08:45.795Z,103471.23
2019-02-24T01:11:16.327Z,103463.34
2019-02-24T01:13:46.667Z,103462.62
2019-02-24T01:16:17.056Z,103463.17
2019-02-24T01:18:47.390Z,103455.11
2019-02-24T01:21:17.781Z,103448.66
2019-02-24T01:23:48.125Z,103444.09
2019-02-24T01:26:18.510Z,103435.45
2019-02-24T01:28:48.852Z,103456.19
2019-02-24T01:31:19.234Z,103457.67
2019-02-24T01:33:49.641Z,103449.58
2019-02-24T01:36:20.035Z,103449.78
2019-02-24T01:38:50.438Z,103446.28
2019-02-24T01:41:20.901Z,103445.36
2019-02-24T01:43:51.242Z,103449.58
2019-02-24T01:46:21.627Z,103447.00
2019-02-24T01:48:51.973Z,103449.22
2019-02-24T01:51:22.369Z,103446.27
2019-02-24T01:53:52.714Z,103458.41
2019-02-24T01:56:23.169Z,103453.64
2019-02-24T01:58:53.573Z,103451.81
2019-02-24T02:01:24.038Z,103452.53
2019-02-24T02:03:54.378Z,103440.59
2019-02-24T02:06:24.762Z,103443.52
2019-02-24T02:08:56.784Z,103443.53
2019-02-24T02:11:27.409Z,103436.36
2019-02-24T02:13:57.758Z,103436.19
2019-02-24T02:16:29.211Z,103426.08
2019-02-24T02:18:59.617Z,103415.97
2019-02-24T02:21:30.325Z,103416.15
2019-02-24T02:24:00.668Z,103410.26
2019-02-24T02:26:31.124Z,103419.66
2019-02-24T02:29:01.468Z,103411.55
2019-02-24T02:31:31.859Z,103414.51
2019-02-24T02:34:02.186Z,103402.19
2019-02-24T02:36:32.626Z,103399.44
2019-02-24T02:39:03.020Z,103398.69
2019-02-24T02:41:35.086Z,103392.44
2019-02-24T02:44:05.427Z,103381.58
2019-02-24T02:46:35.946Z,103380.47
2019-02-24T02:49:06.276Z,103395.19
2019-02-24T02:51:36.729Z,103399.22
2019-02-24T02:54:07.056Z,103402.91
2019-02-24T02:56:37.504Z,103403.80
2019-02-24T02:59:07.875Z,103397.01
2019-02-24T03:01:38.254Z,103397.77
2019-02-24T03:04:08.584Z,103389.65
2019-02-24T03:06:46.542Z,103382.33
2019-02-24T03:09:16.951Z,103386.19
2019-02-24T03:11:47.937Z,103386.90
2019-02-24T03:14:18.281Z,103380.82
2019-02-24T03:16:48.650Z,103377.72
2019-02-24T03:19:20.065Z,103380.64
2019-02-24T03:21:50.455Z,103386.14
2019-02-24T03:24:20.784Z,103388.72
2019-02-24T03:26:51.190Z,103382.64
2019-02-24T03:29:21.519Z,103388.54
2019-02-24T03:31:51.975Z,103396.97
2019-02-24T03:34:22.311Z,103402.30
2019-02-24T03:36:52.751Z,103408.02
2019-02-24T03:39:23.096Z,103415.16
2019-02-24T03:41:53.482Z,103413.88
2019-02-24T03:44:23.820Z,103407.25
2019-02-24T03:46:54.197Z,103405.22
2019-02-24T03:49:24.541Z,103401.71
2019-02-24T03:51:54.937Z,103405.94
2019-02-24T03:54:25.261Z,103402.07
2019-02-24T03:56:55.636Z,103403.93
2019-02-24T03:59:25.982Z,103399.72
2019-02-24T04:01:56.362Z,103390.36
2019-02-24T04:04:26.696Z,103395.11
2019-02-24T04:06:57.076Z,103379.84
2019-02-24T04:09:27.416Z,103374.86
2019-02-24T04:11:57.992Z,103371.72
2019-02-24T04:14:28.336Z,103371.17
2019-02-24T04:16:59.399Z,103364.55
2019-02-24T04:19:29.814Z,103377.78
2019-02-24T04:22:00.197Z,103362.51
2019-02-24T04:24:30.811Z,103362.29
2019-02-24T04:27:01.202Z,103367.07
2019-02-24T04:29:31.539Z,103363.03
2019-02-24T04:32:03.581Z,103353.67
2019-02-24T04:34:33.896Z,103349.42
2019-02-24T04:37:04.356Z,103348.19
2019-02-24T04:39:34.774Z,103353.73
2019-02-24T04:42:05.155Z,103352.63
2019-02-24T04:44:35.487Z,103355.21
2019-02-24T04:47:05.871Z,103353.57
2019-02-24T04:49:36.201Z,103365.32
2019-02-24T04:52:06.580Z,103353.52
2019-02-24T04:54:36.911Z,103363.28
2019-02-24T04:57:08.362Z,103366.74
2019-02-24T04:59:38.696Z,103366.96
2019-02-24T05:02:09.089Z,103360.83
2019-02-24T05:04:39.422Z,103360.30
2019-02-24T05:07:09.802Z,103368.91
2019-02-24T05:09:40.130Z,103365.20
2019-02-24T05:12:10.873Z,103362.45
2019-02-24T05:14:41.213Z,103365.55
2019-02-24T05:17:11.590Z,103352.50
2019-02-24T05:19:41.999Z,103343.48
2019-02-24T05:22:12.650Z,103346.41
2019-02-24T05:24:42.982Z,103342.36
2019-02-24T05:27:13.447Z,103336.28
2019-02-24T05:29:46.101Z,103337.38
2019-02-24T05:32:15.871Z,103330.59
2019-02-24T05:34:46.267Z,103337.92
2019-02-24T05:37:16.655Z,103339.86
2019-02-24T05:39:46.993Z,103351.27
2019-02-24T05:42:17.398Z,103346.07
2019-02-24T05:44:47.724Z,103344.95
2019-02-24T05:47:18.106Z,103336.11
2019-02-24T05:49:48.706Z,103336.27
2019-02-24T05:52:20.937Z,103340.83
2019-02-24T05:54:52.803Z,103333.86
2019-02-24T05:57:24.715Z,103331.70
2019-02-24T05:59:55.636Z,103329.33
2019-02-24T06:02:26.112Z,103335.05
2019-02-24T06:04:56.453Z,103329.16
2019-02-24T06:07:26.824Z,103331.95
2019-02-24T06:09:57.430Z,103328.81
2019-02-24T06:12:27.819Z,103319.87
2019-02-24T06:14:58.155Z,103320.81
2019-02-24T06:17:28.533Z,103323.39
2019-02-24T06:19:58.870Z,103325.97
2019-02-24T06:22:29.247Z,103321.92
2019-02-24T06:24:59.590Z,103322.98
2019-02-24T06:27:29.980Z,103314.48
2019-02-24T06:30:05.029Z,103317.47
2019-02-24T06:32:32.468Z,103323.12
2019-02-24T06:35:02.887Z,103322.36
2019-02-24T06:37:33.268Z,103319.00
2019-02-24T06:40:04.149Z,103323.98
2019-02-24T06:42:34.520Z,103325.28
2019-02-24T06:45:06.505Z,103320.66
2019-02-24T06:47:36.889Z,103328.37
2019-02-24T06:50:08.680Z,103321.77
2019-02-24T06:52:39.073Z,103319.70
2019-02-24T06:55:09.475Z,103324.66
2019-02-24T06:57:39.872Z,103320.28
2019-02-24T07:00:14.214Z,103320.98
2019-02-24T07:02:43.094Z,103324.43
2019-02-24T07:05:13.502Z,103324.77
2019-02-24T07:07:43.946Z,103319.42
2019-02-24T07:10:14.287Z,103314.77
2019-02-24T07:12:44.914Z,103307.41
2019-02-24T07:15:15.247Z,103302.06
2019-02-24T07:17:45.704Z,103299.63
2019-02-24T07:20:16.115Z,103294.84
2019-02-24T07:22:46.524Z,103285.41
2019-02-24T07:25:16.826Z,103285.75
2019-02-24T07:27:47.287Z,103284.20
2019-02-24T07:30:23.612Z,103281.48
2019-02-24T07:32:49.774Z,103284.44
2019-02-24T07:35:20.117Z,103279.16
2019-02-24T07:37:50.500Z,103269.61
2019-02-24T07:40:20.834Z,103271.09
2019-02-24T07:42:51.286Z,103270.62
2019-02-24T07:45:21.690Z,103272.72
2019-02-24T07:47:52.066Z,103258.81
2019-02-24T07:50:22.413Z,103263.62
2019-02-24T07:52:52.798Z,103264.64
2019-02-24T07:55:23.159Z,103260.94
2019-02-24T07:57:53.585Z,103262.46
2019-02-24T08:00:32.052Z,103262.03
2019-02-24T08:02:56.205Z,103259.19
2019-02-24T08:05:26.538Z,103263.91
2019-02-24T08:07:57.898Z,103263.40
2019-02-24T08:10:28.241Z,103262.10
2019-02-24T08:12:59.125Z,103257.91
2019-02-24T08:15:29.526Z,103268.00
2019-02-24T08:17:59.916Z,103267.19
2019-02-24T08:20:30.250Z,103268.88
2019-02-24T08:23:00.901Z,103276.50
2019-02-24T08:25:31.243Z,103267.78
2019-02-24T08:28:01.632Z,103259.39
2019-02-24T08:30:40.975Z,103262.98
2019-02-24T08:33:04.118Z,103262.30
2019-02-24T08:35:34.546Z,103260.89
2019-02-24T08:38:04.993Z,103260.33
2019-02-24T08:40:35.331Z,103264.59
2019-02-24T08:43:05.722Z,103255.38
2019-02-24T08:45:36.126Z,103257.53
2019-02-24T08:48:06.517Z,103251.19
2019-02-24T08:50:36.997Z,103254.19
2019-02-24T08:53:07.369Z,103245.33
2019-02-24T08:55:37.785Z,103241.46
2019-02-24T08:58:08.162Z,103243.05
2019-02-24T09:00:38.643Z,103236.49
2019-02-24T09:03:09.654Z,103242.59
2019-02-24T09:05:40.072Z,103246.32
2019-02-24T09:08:10.561Z,103243.66
2019-02-24T09:10:42.206Z,103245.36
2019-02-24T09:13:13.019Z,103241.41
2019-02-24T09:15:43.356Z,103227.44
2019-02-24T09:18:13.802Z,103216.30
2019-02-24T09:20:44.244Z,103216.13
2019-02-24T09:23:15.774Z,103209.02
2019-02-24T09:25:46.187Z,103209.49
2019-02-24T09:28:16.589Z,103197.15
2019-02-24T09:30:47.001Z,103196.80
2019-02-24T09:33:17.625Z,103191.42
2019-02-24T09:35:47.967Z,103191.84
2019-02-24T09:38:18.415Z,103193.48
2019-02-24T09:40:48.825Z,103197.82
2019-02-24T09:43:19.200Z,103192.80
2019-02-24T09:45:49.609Z,103194.44
2019-02-24T09:48:19.994Z,103177.52
2019-02-24T09:50:50.332Z,103183.73
2019-02-24T09:53:20.709Z,103180.59
2019-02-24T09:55:52.622Z,103193.63
2019-02-24T09:58:23.007Z,103192.77
2019-02-24T10:00:53.417Z,103186.07
2019-02-24T10:03:23.858Z,103172.28
2019-02-24T10:05:54.200Z,103178.23
2019-02-24T10:08:24.597Z,103183.55
2019-02-24T10:10:54.935Z,103170.08
2019-02-24T10:13:25.563Z,103176.88
2019-02-24T10:15:57.448Z,103172.61
2019-02-24T10:18:27.843Z,103177.70
2019-02-24T10:20:58.194Z,103184.02
2019-02-24T10:23:28.596Z,103189.82
2019-02-24T10:25:58.933Z,103196.81
2019-02-24T10:28:29.590Z,103204.05
2019-02-24T10:31:01.708Z,103203.13
2019-02-24T10:33:32.180Z,103197.59
2019-02-24T10:36:02.483Z,103207.41
2019-02-24T10:38:32.940Z,103205.95
2019-02-24T10:41:03.363Z,103210.46
2019-02-24T10:43:33.749Z,103214.44
2019-02-24T10:46:04.113Z,103209.55
2019-02-24T10:48:34.572Z,103205.80
2019-02-24T10:51:04.916Z,103207.04
2019-02-24T10:53:36.263Z,103199.95
2019-02-24T10:56:06.596Z,103200.58
2019-02-24T10:58:37.042Z,103196.88
2019-02-24T11:01:07.651Z,103188.21
2019-02-24T11:03:38.183Z,103183.02
2019-02-24T11:06:08.539Z,103186.51
2019-02-24T11:08:38.986Z,103176.77
2019-02-24T11:11:09.337Z,103171.03
2019-02-24T11:13:39.766Z,103176.45
2019-02-24T11:16:10.163Z,103172.41
2019-02-24T11:18:40.542Z,103172.52
2019-02-24T11:21:11.046Z,103162.24
2019-02-24T11:23:41.820Z,103173.23
2019-02-24T11:26:12.166Z,103179.73
2019-02-24T11:28:42.695Z,103178.86
2019-02-24T11:31:13.120Z,103170.52
2019-02-24T11:33:43.590Z,103178.18
2019-02-24T11:36:13.903Z,103181.17
2019-02-24T11:38:44.364Z,103179.61
2019-02-24T11:41:15.480Z,103180.91
2019-02-24T11:43:45.950Z,103176.83
2019-02-24T11:46:17.356Z,103166.65
2019-02-24T11:48:47.814Z,103158.82
2019-02-24T11:51:18.146Z,103168.88
2019-02-24T11:53:48.605Z,103176.68
2019-02-24T11:56:19.752Z,103161.78
2019-02-24T11:58:50.202Z,103163.04
2019-02-24T12:01:20.535Z,103163.84
2019-02-24T12:03:50.986Z,103165.20
2019-02-24T12:06:21.325Z,103168.13
2019-02-24T12:08:51.760Z,103161.89
2019-02-24T12:11:22.158Z,103164.91
2019-02-24T12:13:53.070Z,103164.74
2019-02-24T12:16:23.418Z,103159.37
2019-02-24T12:18:53.878Z,103173.91
2019-02-24T12:21:24.272Z,103178.30
2019-02-24T12:23:54.778Z,103168.70
2019-02-24T12:26:25.113Z,103170.23
2019-02-24T12:28:55.510Z,103179.84
2019-02-24T12:31:25.849Z,103177.58
2019-02-24T12:33:56.883Z,103179.37
2019-02-24T12:36:27.332Z,103175.81
2019-02-24T12:38:57.855Z,103173.31
2019-02-24T12:41:28.267Z,103181.61
2019-02-24T12:43:58.719Z,103187.45
2019-02-24T12:46:29.062Z,103179.16
2019-02-24T12:48:59.586Z,103175.84
2019-02-24T12:51:29.921Z,103175.69
2019-02-24T12:54:00.372Z,103171.09
2019-02-24T12:56:30.710Z,103162.33
2019-02-24T12:59:01.088Z,103157.47
2019-02-24T13:01:31.429Z,103149.92
2019-02-24T13:04:02.945Z,103137.84
2019-02-24T13:06:33.355Z,103144.80
2019-02-24T13:09:04.668Z,103130.42
2019-02-24T13:11:35.388Z,103132.56
2019-02-24T13:14:05.909Z,103131.16
2019-02-24T13:16:36.261Z,103133.06
2019-02-24T13:19:06.655Z,103133.40
2019-02-24T13:21:37.065Z,103137.98
2019-02-24T13:24:07.460Z,103128.37
2019-02-24T13:26:37.870Z,103131.84
2019-02-24T13:29:08.259Z,103136.89
2019-02-24T13:31:38.738Z,103139.42
2019-02-24T13:34:09.256Z,103136.94
2019-02-24T13:36:39.599Z,103138.83
2019-02-24T13:39:09.986Z,103131.59
2019-02-24T13:41:40.399Z,103131.73
2019-02-24T13:44:10.863Z,103131.27
2019-02-24T13:46:41.473Z,103133.02
2019-02-24T13:49:11.933Z,103126.65
2019-02-24T13:51:42.329Z,103123.44
2019-02-24T13:54:12.776Z,103125.84
2019-02-24T13:56:43.112Z,103115.89
2019-02-24T13:59:13.601Z,103105.72
2019-02-24T14:01:44.203Z,103090.11
2019-02-24T14:04:14.658Z,103080.52
2019-02-24T14:06:44.996Z,103084.39
2019-02-24T14:09:15.446Z,103083.08
2019-02-24T14:11:45.787Z,103086.72
2019-02-24T14:14:16.490Z,103082.41
2019-02-24T14:16:46.832Z,103084.21
2019-02-24T14:19:17.225Z,103070.00
2019-02-24T14:21:47.567Z,103085.80
2019-02-24T14:24:19.977Z,103088.31
2019-02-24T14:26:50.495Z,103085.95
2019-02-24T14:29:21.154Z,103077.45
2019-02-24T14:31:51.571Z,103069.84
2019-02-24T14:34:21.951Z,103051.82
2019-02-24T14:36:54.738Z,103059.50
2019-02-24T14:39:25.459Z,103065.48
2019-02-24T14:41:55.844Z,103071.56
2019-02-24T14:44:26.223Z,103071.21
2019-02-24T14:46:57.222Z,103061.75
2019-02-24T14:49:27.794Z,103053.46
2019-02-24T14:51:58.199Z,103051.66
2019-02-24T14:54:28.736Z,103046.16
2019-02-24T14:56:59.353Z,103046.48
2019-02-24T14:59:29.801Z,103045.34
2019-02-24T15:02:00.134Z,103056.84
2019-02-24T15:04:30.515Z,103050.02
2019-02-24T15:07:00.904Z,103044.69
2019-02-24T15:09:31.302Z,103054.23
2019-02-24T15:12:01.648Z,103049.94
2019-02-24T15:14:32.231Z,103056.59
2019-02-24T15:17:02.636Z,103057.05
2019-02-24T15:19:33.017Z,103063.38
2019-02-24T15:22:03.462Z,103060.84
2019-02-24T15:24:33.886Z,103060.34
2019-02-24T15:27:04.294Z,103059.22
2019-02-24T15:29:35.807Z,103071.29
2019-02-24T15:32:06.248Z,103063.94
2019-02-24T15:34:36.820Z,103058.24
2019-02-24T15:37:07.509Z,103053.44
2019-02-24T15:39:37.884Z,103054.50
2019-02-24T15:42:08.203Z,103048.19
2019-02-24T15:44:38.651Z,103053.33
2019-02-24T15:47:09.055Z,103066.94
2019-02-24T15:49:39.435Z,103057.24
2019-02-24T15:52:10.263Z,103044.21
2019-02-24T15:54:40.736Z,103053.45
2019-02-24T15:57:11.342Z,103049.98
2019-02-24T15:59:41.746Z,103060.27
2019-02-24T16:02:12.081Z,103054.69
2019-02-24T16:04:42.463Z,103051.36
2019-02-24T16:07:12.802Z,103055.28
2019-02-24T16:09:43.177Z,103056.75
2019-02-24T16:12:13.602Z,103064.69
2019-02-24T16:14:44.061Z,103063.78
2019-02-24T16:17:14.487Z,103059.89
2019-02-24T16:19:45.130Z,103062.47
2019-02-24T16:22:15.470Z,103059.06
2019-02-24T16:24:45.879Z,103066.42
2019-02-24T16:27:16.273Z,103072.33
2019-02-24T16:29:46.722Z,103073.34
2019-02-24T16:32:17.140Z,103075.22
2019-02-24T16:34:47.594Z,103075.16
2019-02-24T16:37:18.030Z,103079.84
2019-02-24T16:39:48.481Z,103079.05
2019-02-24T16:42:18.846Z,103082.66
2019-02-24T16:44:50.409Z,103084.25
2019-02-24T16:47:20.771Z,103089.38
2019-02-24T16:49:51.222Z,103084.12
2019-02-24T16:52:21.579Z,103080.11
2019-02-24T16:54:52.814Z,103083.48
2019-02-24T16:57:23.373Z,103081.55
2019-02-24T16:59:53.820Z,103083.95
2019-02-24T17:02:24.164Z,103074.78
2019-02-24T17:04:54.868Z,103069.33
2019-02-24T17:07:25.326Z,103070.05
2019-02-24T17:09:56.745Z,103076.00
2019-02-24T17:12:27.792Z,103073.63
2019-02-24T17:14:58.320Z,103072.74
2019-02-24T17:17:28.792Z,103081.91
2019-02-24T17:19:59.166Z,103073.19
2019-02-24T17:22:29.506Z,103072.19
2019-02-24T17:25:00.355Z,103061.84
2019-02-24T17:27:30.750Z,103057.54
2019-02-24T17:30:01.132Z,103059.69
2019-02-24T17:32:31.545Z,103066.00
2019-02-24T17:35:02.009Z,103075.97
2019-02-24T17:37:32.424Z,103071.84
2019-02-24T17:40:02.880Z,103070.63
2019-02-24T17:42:33.327Z,103077.41
2019-02-24T17:45:03.981Z,103080.28
2019-02-24T17:47:35.407Z,103062.86
2019-02-24T17:50:08.745Z,103066.80
2019-02-24T17:52:39.246Z,103076.84
2019-02-24T17:55:13.307Z,103072.14
2019-02-24T17:57:44.660Z,103065.06
2019-02-24T18:00:23.586Z,103071.59
2019-02-24T18:02:54.056Z,103066.64
2019-02-24T18:05:24.444Z,103071.83
2019-02-24T18:07:54.866Z,103074.58
2019-02-24T18:10:25.332Z,103074.79
2019-02-24T18:12:55.759Z,103087.72
2019-02-24T18:15:26.244Z,103085.37
2019-02-24T18:17:56.593Z,103088.53
2019-02-24T18:20:27.038Z,103098.59
2019-02-24T18:22:57.455Z,103102.34
2019-02-24T18:25:27.834Z,103093.47
2019-02-24T18:27:58.189Z,103085.30
2019-02-24T18:30:29.798Z,103089.94
2019-02-24T18:33:00.241Z,103093.38
2019-02-24T18:35:31.695Z,103088.17
2019-02-24T18:38:02.126Z,103090.59
2019-02-24T18:40:33.578Z,103087.30
2019-02-24T18:43:03.942Z,103077.71
2019-02-24T18:45:34.401Z,103082.65
2019-02-24T18:48:04.726Z,103091.04
2019-02-24T18:50:35.205Z,103085.23
2019-02-24T18:53:06.499Z,103083.71
2019-02-24T18:55:37.060Z,103089.11
2019-02-24T18:58:07.534Z,103091.48
2019-02-24T19:00:37.987Z,103086.73
2019-02-24T19:03:08.393Z,103092.98
2019-02-24T19:05:38.860Z,103092.83
2019-02-24T19:08:09.287Z,103080.81
2019-02-24T19:10:39.897Z,103091.69
2019-02-24T19:13:11.296Z,103086.56
2019-02-24T19:15:41.764Z,103094.69
2019-02-24T19:18:12.114Z,103093.67
2019-02-24T19:20:42.506Z,103097.41
2019-02-24T19:23:12.914Z,103092.57
2019-02-24T19:25:43.372Z,103100.05
2019-02-24T19:28:13.801Z,103092.73
2019-02-24T19:30:44.188Z,103084.14
2019-02-24T19:33:14.544Z,103083.53
2019-02-24T19:35:45.002Z,103082.69
2019-02-24T19:38:15.335Z,103083.84
2019-02-24T19:40:45.790Z,103097.52
2019-02-24T19:43:16.142Z,103100.00
2019-02-24T19:45:46.514Z,103096.17
2019-02-24T19:48:17.016Z,103082.52
2019-02-24T19:50:47.469Z,103092.09
2019-02-24T19:53:18.980Z,103090.56
2019-02-24T19:55:49.367Z,103091.57
2019-02-24T19:58:19.846Z,103101.45
2019-02-24T20:00:50.290Z,103105.52
2019-02-24T20:03:20.695Z,103102.69
2019-02-24T20:05:51.077Z,103096.20
2019-02-24T20:08:21.639Z,103093.94
2019-02-24T20:10:52.090Z,103094.30
2019-02-24T20:13:22.446Z,103091.89
2019-02-24T20:15:52.999Z,103098.22
2019-02-24T20:18:23.505Z,103102.16
2019-02-24T20:20:53.909Z,103099.98
2019-02-24T20:23:24.279Z,103096.60
2019-02-24T20:25:55.079Z,103093.02
2019-02-24T20:28:27.257Z,103093.19
2019-02-24T20:31:06.965Z,103087.62
2019-02-24T20:33:38.524Z,103096.81
2019-02-24T20:36:33.476Z,103101.97
2019-02-24T20:39:15.362Z,103086.17
2019-02-24T20:42:29.794Z,103082.95
2019-02-24T20:45:18.969Z,103082.86
2019-02-24T20:47:51.580Z,103070.23
2019-02-24T20:50:29.107Z,103078.62
2019-02-24T20:53:01.693Z,103075.11
2019-02-24T20:55:33.930Z,103074.14
2019-02-24T20:58:06.001Z,103078.45
2019-02-24T21:00:49.826Z,103074.95
2019-02-24T21:03:23.695Z,103085.56
2019-02-24T21:05:56.817Z,103090.00
2019-02-24T21:08:27.257Z,103096.73
2019-02-24T21:10:57.706Z,103101.41
2019-02-24T21:13:28.219Z,103097.25
2019-02-24T21:16:00.005Z,103093.38
2019-02-24T21:18:32.694Z,103077.91
2019-02-24T21:21:04.939Z,103083.59
2019-02-24T21:23:37.253Z,103081.17
2019-02-24T21:26:08.823Z,103087.14
2019-02-24T21:28:40.712Z,103086.45
2019-02-24T21:31:13.810Z,103085.89
2019-02-24T21:33:44.821Z,103089.11
2019-02-24T21:36:16.757Z,103080.97
2019-02-24T21:38:49.176Z,103088.98
2019-02-24T21:41:20.120Z,103082.61
2019-02-24T21:43:50.592Z,103087.23
2019-02-24T21:46:20.952Z,103086.18
2019-02-24T21:48:51.410Z,103085.13
2019-02-24T21:51:21.777Z,103081.42
2019-02-24T21:53:52.248Z,103076.66
2019-02-24T21:56:22.670Z,103075.22
2019-02-24T21:58:53.081Z,103083.74
2019-02-24T22:01:23.425Z,103074.03
2019-02-24T22:03:54.162Z,103073.70
2019-02-24T22:06:24.659Z,103074.43
2019-02-24T22:08:55.115Z,103074.23
2019-02-24T22:11:25.452Z,103068.75
2019-02-24T22:13:55.890Z,103062.83
2019-02-24T22:16:26.419Z,103061.22
2019-02-24T22:18:56.798Z,103052.20
2019-02-24T22:21:28.003Z,103064.42
2019-02-24T22:23:58.871Z,103063.30
2019-02-24T22:26:30.396Z,103068.88
2019-02-24T22:29:01.212Z,103079.02
2019-02-24T22:31:31.750Z,103074.27
2019-02-24T22:34:02.208Z,103080.01
2019-02-24T22:36:32.565Z,103076.38
2019-02-24T22:39:03.251Z,103073.10
2019-02-24T22:41:35.192Z,103078.31
2019-02-24T22:44:05.578Z,103078.93
2019-02-24T22:46:36.100Z,103075.66
2019-02-24T22:49:06.548Z,103075.83
2019-02-24T22:51:36.925Z,103068.48
2019-02-24T22:54:07.383Z,103065.19
2019-02-24T22:56:37.740Z,103065.89
2019-02-24T22:59:08.135Z,103062.78
2019-02-24T23:01:38.568Z,103062.39
2019-02-24T23:04:10.256Z,103063.48
2019-02-24T23:06:40.685Z,103066.69
2019-02-24T23:09:11.993Z,103065.23
2019-02-24T23:11:42.704Z,103063.52
2019-02-24T23:14:13.173Z,103064.25
2019-02-24T23:16:44.527Z,103066.63
2019-02-24T23:19:14.899Z,103059.80
2019-02-24T23:21:45.249Z,103059.92
2019-02-24T23:24:15.643Z,103060.29
2019-02-24T23:26:46.076Z,103063.63
2019-02-24T23:29:16.821Z,103063.63
2019-02-24T23:31:48.034Z,103059.17
2019-02-24T23:34:20.060Z,103054.58
2019-02-24T23:36:50.425Z,103046.58
2019-02-24T23:39:20.879Z,103044.64
2019-02-24T23:41:51.334Z,103043.22
2019-02-24T23:44:21.720Z,103034.60
2019-02-24T23:46:52.215Z,103025.02
2019-02-24T23:49:22.661Z,103031.13
2019-02-24T23:51:52.992Z,103027.73
2019-02-24T23:54:23.522Z,103031.27
2019-02-24T23:56:55.057Z,103032.74
2019-02-24T23:59:25.520Z,103027.95
